Time;durP1;ratioP1;P1;durP2;ratioP2;P2;SDS_P1;SDS_P2;PMS_P1;PMS_P2;Temp;Humidity;BMP_temperature;BMP_pressure;BME280_temperature;BME280_humidity;BME280_pressure;Samples;Min_cycle;Max_cycle;Signal;HPM_P1;HPM_P2
2024/03/14 00:02:22;;;;;;;1.00;0.70;;;11.70;99.90;;;;;;5123825;27;20820;-61
2024/03/14 00:04:49;;;;;;;1.02;0.60;;;11.60;99.90;;;;;;5116506;27;20410;-62
2024/03/14 00:07:16;;;;;;;0.93;0.70;;;11.40;99.90;;;;;;5114873;27;20465;-60
2024/03/14 00:09:44;;;;;;;0.90;0.70;;;11.30;99.90;;;;;;5115706;27;20855;-61
2024/03/14 00:12:11;;;;;;;2.15;0.75;;;11.40;99.90;;;;;;5122757;27;20435;-61
2024/03/14 00:14:39;;;;;;;1.05;0.70;;;11.40;99.90;;;;;;5114632;27;20413;-61
2024/03/14 00:17:06;;;;;;;0.98;0.60;;;11.30;99.90;;;;;;5115191;27;20820;-60
2024/03/14 00:19:33;;;;;;;1.88;0.73;;;11.40;99.90;;;;;;5113211;27;20478;-61
2024/03/14 00:22:00;;;;;;;1.10;0.70;;;11.40;99.90;;;;;;5113455;27;20411;-61
2024/03/14 00:24:27;;;;;;;1.27;0.75;;;11.40;99.90;;;;;;5114550;27;20426;-61
2024/03/14 00:26:54;;;;;;;1.20;0.80;;;11.40;99.90;;;;;;5115050;27;20746;-61
2024/03/14 00:29:21;;;;;;;1.50;0.70;;;11.30;99.90;;;;;;5112626;27;20429;-61
2024/03/14 00:31:48;;;;;;;1.20;0.70;;;11.10;99.90;;;;;;5115980;27;20531;-61
2024/03/14 00:34:15;;;;;;;1.30;0.70;;;11.10;99.90;;;;;;5114205;27;20417;-60
2024/03/14 00:36:43;;;;;;;1.00;0.70;;;11.20;99.90;;;;;;5113974;27;20503;-60
2024/03/14 00:39:11;;;;;;;1.40;0.70;;;11.20;99.90;;;;;;5115978;27;20414;-61
2024/03/14 00:41:38;;;;;;;1.30;0.80;;;11.30;99.90;;;;;;5113595;27;20439;-60
2024/03/14 00:44:05;;;;;;;1.00;0.70;;;11.30;99.90;;;;;;5115646;27;20408;-61
2024/03/14 00:46:33;;;;;;;1.20;0.73;;;11.30;99.90;;;;;;5112673;27;20739;-61
2024/03/14 00:49:00;;;;;;;1.33;0.70;;;11.30;99.90;;;;;;5114788;27;20419;-61
2024/03/14 00:51:27;;;;;;;1.80;0.70;;;11.20;99.90;;;;;;5115964;27;20440;-60
2024/03/14 00:53:54;;;;;;;1.02;0.80;;;11.10;99.90;;;;;;5112602;27;20416;-61
2024/03/14 00:56:21;;;;;;;1.63;0.70;;;11.10;99.90;;;;;;5114998;27;20510;-61
2024/03/14 00:58:48;;;;;;;1.35;0.70;;;11.00;99.90;;;;;;5124198;27;20455;-61
2024/03/14 01:01:16;;;;;;;1.10;0.70;;;10.90;99.90;;;;;;5115320;27;20423;-61
2024/03/14 01:03:43;;;;;;;1.50;0.70;;;10.70;99.90;;;;;;5113755;27;20423;-60
2024/03/14 01:06:12;;;;;;;1.30;0.80;;;10.70;99.90;;;;;;5114425;27;20499;-60
2024/03/14 01:08:40;;;;;;;1.70;0.80;;;10.60;99.90;;;;;;5114609;27;20413;-62
2024/03/14 01:11:07;;;;;;;1.20;0.70;;;10.70;99.90;;;;;;5115393;27;20452;-61
2024/03/14 01:13:34;;;;;;;1.10;0.70;;;10.70;99.90;;;;;;5115466;27;20422;-61
2024/03/14 01:16:01;;;;;;;1.20;0.80;;;10.90;99.90;;;;;;5122458;27;20477;-60
2024/03/14 01:18:28;;;;;;;1.70;0.90;;;11.10;99.90;;;;;;5116573;27;20473;-61
2024/03/14 01:20:55;;;;;;;1.52;0.80;;;11.20;99.90;;;;;;5114706;27;20463;-60
2024/03/14 01:23:23;;;;;;;1.40;0.90;;;11.30;99.90;;;;;;5114388;27;20407;-61
2024/03/14 01:25:50;;;;;;;1.40;0.90;;;11.30;99.90;;;;;;5122471;27;20419;-60
2024/03/14 01:28:17;;;;;;;1.40;0.90;;;11.40;99.90;;;;;;5115124;27;20417;-61
2024/03/14 01:30:44;;;;;;;1.40;0.90;;;11.40;99.90;;;;;;5117224;27;20838;-61
2024/03/14 01:33:11;;;;;;;1.30;0.80;;;11.40;99.90;;;;;;5113544;27;20422;-61
2024/03/14 01:35:38;;;;;;;1.20;0.90;;;11.50;99.90;;;;;;5113066;27;20496;-61
2024/03/14 01:38:06;;;;;;;1.40;0.80;;;11.40;99.90;;;;;;5114462;27;20756;-61
2024/03/14 01:40:33;;;;;;;1.67;0.90;;;11.20;99.90;;;;;;5120879;27;20471;-61
2024/03/14 01:43:03;;;;;;;1.73;1.00;;;11.10;99.90;;;;;;5119941;27;20412;-61
2024/03/14 01:45:30;;;;;;;2.08;1.10;;;11.00;99.90;;;;;;5114818;27;20564;-61
2024/03/14 01:47:58;;;;;;;1.90;1.00;;;10.90;99.90;;;;;;5113308;27;20496;-60
2024/03/14 01:50:25;;;;;;;1.60;1.10;;;10.70;99.90;;;;;;5111838;27;20851;-61
2024/03/14 01:52:52;;;;;;;2.10;1.30;;;10.80;99.90;;;;;;5121986;27;20401;-61
2024/03/14 01:55:19;;;;;;;2.40;1.20;;;10.80;99.90;;;;;;5119391;27;20688;-61
2024/03/14 01:57:46;;;;;;;2.28;1.40;;;10.70;99.90;;;;;;5120745;27;20812;-60
2024/03/14 02:00:14;;;;;;;1.73;1.20;;;10.60;99.90;;;;;;5113630;27;20420;-60
2024/03/14 02:02:41;;;;;;;2.50;1.30;;;10.50;99.90;;;;;;5115118;27;20417;-60
2024/03/14 02:05:10;;;;;;;2.53;1.50;;;10.50;99.90;;;;;;5114279;27;20690;-60
2024/03/14 02:07:38;;;;;;;2.17;1.38;;;10.40;99.90;;;;;;5113780;27;20496;-60
2024/03/14 02:10:06;;;;;;;1.80;1.10;;;10.30;99.90;;;;;;5112434;27;20410;-61
2024/03/14 02:12:33;;;;;;;1.90;1.10;;;10.30;99.90;;;;;;5114554;27;20428;-61
2024/03/14 02:15:02;;;;;;;2.50;1.20;;;10.30;99.90;;;;;;5114439;27;20414;-60
2024/03/14 02:17:29;;;;;;;1.70;1.10;;;10.20;99.90;;;;;;5119879;27;20508;-60
2024/03/14 02:19:56;;;;;;;2.75;1.17;;;10.20;99.90;;;;;;5113001;27;20403;-60
2024/03/14 02:22:23;;;;;;;1.70;1.10;;;10.10;99.90;;;;;;5113700;27;20413;-60
2024/03/14 02:24:51;;;;;;;2.10;1.10;;;10.10;99.90;;;;;;5113794;27;20418;-60
2024/03/14 02:27:18;;;;;;;2.42;1.02;;;10.10;99.90;;;;;;5112829;27;20468;-60
2024/03/14 02:29:45;;;;;;;1.40;1.00;;;10.20;99.90;;;;;;5111705;27;20483;-60
2024/03/14 02:32:13;;;;;;;1.40;0.90;;;10.20;99.90;;;;;;5112826;27;20471;-60
2024/03/14 02:34:40;;;;;;;1.83;0.93;;;10.20;99.90;;;;;;5113013;27;20406;-60
2024/03/14 02:37:07;;;;;;;1.50;0.83;;;10.20;99.90;;;;;;5111478;27;20477;-60
2024/03/14 02:39:34;;;;;;;1.40;0.80;;;10.20;99.90;;;;;;5113326;27;20432;-61
2024/03/14 02:42:01;;;;;;;1.40;0.90;;;10.20;99.90;;;;;;5120960;27;20414;-61
2024/03/14 02:44:28;;;;;;;2.85;0.80;;;10.10;99.90;;;;;;5111932;27;20414;-61
2024/03/14 02:46:56;;;;;;;1.30;0.90;;;10.10;99.90;;;;;;5111955;27;20412;-61
2024/03/14 02:49:23;;;;;;;2.42;1.00;;;10.00;99.90;;;;;;5114119;27;20454;-61
2024/03/14 02:51:50;;;;;;;1.60;0.90;;;10.00;99.90;;;;;;5111262;27;20518;-61
2024/03/14 02:54:17;;;;;;;1.60;0.90;;;9.90;99.90;;;;;;5111937;27;20488;-61
2024/03/14 02:56:47;;;;;;;1.95;0.90;;;9.80;99.90;;;;;;5110710;27;20411;-61
2024/03/14 02:59:14;;;;;;;1.90;0.80;;;9.70;99.90;;;;;;5117199;27;20761;-61
2024/03/14 03:01:41;;;;;;;1.80;0.90;;;9.70;99.90;;;;;;5115808;27;20407;-61
2024/03/14 03:04:09;;;;;;;1.20;0.80;;;9.70;99.90;;;;;;5111406;27;20415;-61
2024/03/14 03:06:43;;;;;;;2.00;0.90;;;9.90;99.90;;;;;;5112408;27;20495;-61
2024/03/14 03:09:11;;;;;;;2.40;1.00;;;9.90;99.90;;;;;;5121424;27;20433;-61
2024/03/14 03:11:38;;;;;;;1.30;0.90;;;9.90;99.90;;;;;;5118864;27;20427;-60
2024/03/14 03:14:05;;;;;;;1.58;0.90;;;9.80;99.90;;;;;;5114432;27;20434;-61
2024/03/14 03:16:33;;;;;;;2.30;0.90;;;9.70;99.90;;;;;;5110231;28;20452;-61
2024/03/14 03:19:00;;;;;;;1.50;0.80;;;9.60;99.90;;;;;;5108221;27;20539;-61
2024/03/14 03:21:28;;;;;;;2.00;1.10;;;9.40;99.90;;;;;;5104317;27;20861;-61
2024/03/14 03:23:54;;;;;;;1.60;1.00;;;9.40;99.90;;;;;;5112220;27;20756;-61
2024/03/14 03:26:21;;;;;;;2.53;0.90;;;9.30;99.90;;;;;;5114505;27;20459;-60
2024/03/14 03:28:49;;;;;;;2.10;0.90;;;9.30;99.90;;;;;;5111363;27;20418;-61
2024/03/14 03:31:16;;;;;;;1.60;1.00;;;9.60;99.90;;;;;;5112107;27;20906;-61
2024/03/14 03:33:43;;;;;;;1.30;0.90;;;9.60;99.90;;;;;;5122748;27;20500;-61
2024/03/14 03:36:09;;;;;;;1.60;0.90;;;9.50;99.90;;;;;;5116510;27;20412;-60
2024/03/14 03:38:38;;;;;;;1.92;0.90;;;9.50;99.90;;;;;;5116152;27;20414;-60
2024/03/14 03:41:04;;;;;;;2.40;0.90;;;9.30;99.90;;;;;;5125091;27;20481;-60
2024/03/14 03:43:31;;;;;;;2.55;0.90;;;9.30;99.90;;;;;;5115502;27;20887;-60
2024/03/14 03:45:58;;;;;;;1.90;1.00;;;9.20;99.90;;;;;;5122523;27;20427;-60
2024/03/14 03:48:25;;;;;;;1.70;0.90;;;9.10;99.90;;;;;;5117493;27;20480;-60
2024/03/14 03:50:52;;;;;;;1.50;0.90;;;9.00;99.90;;;;;;5115951;27;20484;-60
2024/03/14 03:53:19;;;;;;;1.67;0.90;;;9.00;99.90;;;;;;5115494;27;20493;-60
2024/03/14 03:55:45;;;;;;;2.45;1.10;;;9.00;99.90;;;;;;5122519;27;20903;-60
2024/03/14 03:58:13;;;;;;;2.72;1.08;;;9.00;99.90;;;;;;5116031;27;20781;-60
2024/03/14 04:00:43;;;;;;;1.35;1.00;;;9.10;99.90;;;;;;5118687;27;20424;-59
2024/03/14 04:03:11;;;;;;;2.20;1.20;;;9.10;99.90;;;;;;5116010;27;20420;-60
2024/03/14 04:05:37;;;;;;;1.48;0.90;;;9.00;99.90;;;;;;5115778;27;20424;-60
2024/03/14 04:08:05;;;;;;;1.92;1.10;;;9.00;99.90;;;;;;5115723;27;20422;-60
2024/03/14 04:10:31;;;;;;;1.60;0.90;;;9.00;99.90;;;;;;5123505;27;20439;-60
2024/03/14 04:13:00;;;;;;;1.95;1.08;;;9.00;99.90;;;;;;5116328;27;20499;-61
2024/03/14 04:15:28;;;;;;;2.10;1.00;;;9.00;99.90;;;;;;5115964;27;20439;-60
2024/03/14 04:17:55;;;;;;;2.67;1.20;;;9.10;99.90;;;;;;5115658;27;20921;-60
2024/03/14 04:20:23;;;;;;;1.50;0.80;;;9.20;99.90;;;;;;5116732;27;20479;-60
2024/03/14 04:22:53;;;;;;;2.47;0.98;;;9.40;99.90;;;;;;5114973;27;20410;-61
2024/03/14 04:25:20;;;;;;;1.50;0.90;;;9.20;99.90;;;;;;5115846;27;20432;-61
2024/03/14 04:27:51;;;;;;;1.92;1.08;;;9.20;99.90;;;;;;5115545;27;20436;-61
2024/03/14 04:30:20;;;;;;;1.73;1.10;;;9.00;99.90;;;;;;5116672;27;20469;-61
2024/03/14 04:32:47;;;;;;;2.40;1.00;;;9.00;99.90;;;;;;5114358;27;20837;-60
2024/03/14 04:35:15;;;;;;;1.50;0.80;;;9.00;99.90;;;;;;5115097;27;20417;-60
2024/03/14 04:37:42;;;;;;;1.80;0.93;;;9.00;99.90;;;;;;5121547;27;20462;-60
2024/03/14 04:40:12;;;;;;;2.03;1.00;;;8.90;99.90;;;;;;5113105;27;20423;-60
2024/03/14 04:42:40;;;;;;;1.70;1.00;;;8.90;99.90;;;;;;5119846;27;20429;-60
2024/03/14 04:45:09;;;;;;;1.77;1.10;;;8.80;99.90;;;;;;5114045;27;20433;-60
2024/03/14 04:47:36;;;;;;;3.30;0.98;;;8.70;99.90;;;;;;5106157;27;20878;-60
2024/03/14 04:50:04;;;;;;;1.90;1.00;;;8.70;99.90;;;;;;5111957;27;20680;-60
2024/03/14 04:52:31;;;;;;;3.17;1.10;;;8.60;99.90;;;;;;5112240;27;20426;-60
2024/03/14 04:54:58;;;;;;;2.42;1.00;;;8.50;99.90;;;;;;5115457;27;20418;-60
2024/03/14 04:57:25;;;;;;;2.33;1.10;;;8.40;99.90;;;;;;5113860;27;20458;-59
2024/03/14 04:59:52;;;;;;;1.77;1.00;;;8.30;99.90;;;;;;5109164;27;20471;-60
2024/03/14 05:02:19;;;;;;;1.92;0.90;;;8.30;99.90;;;;;;5112520;27;20463;-59
2024/03/14 05:04:46;;;;;;;2.13;1.10;;;8.20;99.90;;;;;;5115950;27;20424;-59
2024/03/14 05:07:13;;;;;;;3.85;1.08;;;8.30;99.90;;;;;;5111264;27;20426;-59
2024/03/14 05:09:40;;;;;;;2.30;1.00;;;8.20;99.90;;;;;;5114819;27;20425;-61
2024/03/14 05:12:08;;;;;;;2.35;1.20;;;8.20;99.90;;;;;;5117896;27;20424;-61
2024/03/14 05:14:37;;;;;;;1.85;1.00;;;8.20;99.90;;;;;;5106190;27;20905;-59
2024/03/14 05:17:04;;;;;;;1.80;0.95;;;8.10;99.90;;;;;;5111082;27;20765;-59
2024/03/14 05:19:31;;;;;;;3.55;1.20;;;8.00;99.90;;;;;;5116286;27;20428;-60
2024/03/14 05:21:58;;;;;;;2.50;1.10;;;7.90;99.90;;;;;;5114031;27;20822;-59
2024/03/14 05:24:26;;;;;;;2.00;1.00;;;7.90;99.90;;;;;;5117087;27;20524;-59
2024/03/14 05:26:54;;;;;;;3.00;1.20;;;7.80;99.90;;;;;;5113901;27;20418;-58
2024/03/14 05:29:21;;;;;;;3.60;1.20;;;7.80;99.90;;;;;;5112224;27;20492;-58
2024/03/14 05:31:48;;;;;;;3.33;1.15;;;7.80;99.90;;;;;;5114071;27;20424;-57
2024/03/14 05:34:15;;;;;;;2.70;1.30;;;7.80;99.90;;;;;;5113072;27;20430;-60
2024/03/14 05:36:42;;;;;;;3.65;1.40;;;7.70;99.90;;;;;;5122631;27;20407;-60
2024/03/14 05:39:09;;;;;;;3.60;1.30;;;7.80;99.90;;;;;;5111712;27;20466;-60
2024/03/14 05:41:36;;;;;;;4.35;1.40;;;7.90;99.90;;;;;;5119990;27;20414;-60
2024/03/14 05:44:03;;;;;;;3.75;1.60;;;7.90;99.90;;;;;;5107131;27;20426;-59
2024/03/14 05:46:30;;;;;;;3.90;1.20;;;7.90;99.90;;;;;;5125751;27;20434;-59
2024/03/14 05:48:57;;;;;;;4.22;1.50;;;7.90;99.90;;;;;;5111512;27;20420;-60
2024/03/14 05:51:24;;;;;;;3.10;1.60;;;7.90;99.90;;;;;;5111402;27;20500;-59
2024/03/14 05:53:51;;;;;;;2.90;1.30;;;7.90;99.90;;;;;;5112419;27;20422;-60
2024/03/14 05:56:18;;;;;;;6.95;3.50;;;7.90;99.90;;;;;;5114125;27;20747;-59
2024/03/14 05:58:45;;;;;;;4.45;1.90;;;7.90;99.90;;;;;;5111924;27;20478;-60
2024/03/14 06:01:13;;;;;;;4.57;1.50;;;7.90;99.90;;;;;;5111961;27;20499;-59
2024/03/14 06:03:42;;;;;;;5.70;2.00;;;7.90;99.90;;;;;;5114707;27;20412;-60
2024/03/14 06:06:10;;;;;;;3.90;1.60;;;8.00;99.90;;;;;;5113215;27;20419;-59
2024/03/14 06:08:37;;;;;;;4.28;1.65;;;8.00;99.90;;;;;;5101360;27;20523;-60
2024/03/14 06:11:05;;;;;;;5.10;1.83;;;8.10;99.90;;;;;;5118133;27;20424;-59
2024/03/14 06:13:33;;;;;;;4.30;1.40;;;8.10;99.90;;;;;;5109585;27;20430;-60
2024/03/14 06:16:00;;;;;;;3.90;1.90;;;8.10;99.90;;;;;;5112521;27;20408;-60
2024/03/14 06:18:27;;;;;;;3.60;1.60;;;8.10;99.90;;;;;;5113848;27;20889;-60
2024/03/14 06:20:55;;;;;;;5.07;1.60;;;8.20;99.90;;;;;;5100807;27;20426;-60
2024/03/14 06:23:22;;;;;;;4.90;1.60;;;8.20;99.90;;;;;;5107960;27;20422;-59
2024/03/14 06:25:50;;;;;;;5.28;1.80;;;8.20;99.90;;;;;;5116170;27;20408;-60
2024/03/14 06:28:17;;;;;;;3.85;1.60;;;8.20;99.90;;;;;;5118843;27;20420;-59
2024/03/14 06:30:47;;;;;;;3.97;1.70;;;8.20;99.90;;;;;;5113083;27;20428;-60
2024/03/14 06:33:15;;;;;;;3.88;1.50;;;8.20;99.90;;;;;;5111566;27;20443;-60
2024/03/14 06:35:42;;;;;;;4.90;1.60;;;8.20;99.90;;;;;;5112893;27;20435;-60
2024/03/14 06:38:09;;;;;;;4.85;1.90;;;8.30;99.90;;;;;;5114639;27;20422;-60
2024/03/14 06:40:37;;;;;;;4.40;1.60;;;8.40;99.90;;;;;;5100156;27;20804;-60
2024/03/14 06:43:06;;;;;;;5.50;1.70;;;8.40;99.90;;;;;;5105198;27;21095;-59
2024/03/14 06:45:34;;;;;;;4.82;2.20;;;8.50;99.90;;;;;;5122126;27;20473;-59
2024/03/14 06:48:01;;;;;;;4.10;1.50;;;8.50;99.90;;;;;;5111911;27;20442;-58
2024/03/14 06:50:31;;;;;;;4.00;1.40;;;8.50;99.90;;;;;;5111816;27;20522;-59
2024/03/14 06:52:59;;;;;;;4.50;1.88;;;8.50;99.90;;;;;;5116090;27;20818;-58
2024/03/14 06:55:26;;;;;;;3.38;1.92;;;8.50;99.90;;;;;;5121040;27;20421;-58
2024/03/14 06:57:54;;;;;;;4.40;1.70;;;8.50;99.90;;;;;;5129464;27;20418;-59
2024/03/14 07:00:25;;;;;;;6.40;2.43;;;8.60;99.90;;;;;;5120866;27;20432;-58
2024/03/14 07:02:52;;;;;;;5.50;2.03;;;8.50;99.90;;;;;;5118107;27;20412;-59
2024/03/14 07:05:22;;;;;;;5.60;2.10;;;8.60;99.90;;;;;;5110372;28;20414;-59
2024/03/14 07:07:50;;;;;;;4.88;2.08;;;8.70;99.90;;;;;;5116476;27;20442;-59
2024/03/14 07:10:19;;;;;;;5.93;2.15;;;8.80;99.90;;;;;;5123701;27;20438;-59
2024/03/14 07:12:46;;;;;;;5.32;1.80;;;8.90;99.90;;;;;;5123219;27;20834;-59
2024/03/14 07:15:13;;;;;;;4.90;1.85;;;8.90;99.90;;;;;;5122117;27;20420;-58
2024/03/14 07:17:40;;;;;;;3.85;1.80;;;8.90;99.90;;;;;;5121378;27;20841;-58
2024/03/14 07:20:16;;;;;;;5.10;1.70;;;9.00;99.90;;;;;;5122225;27;20405;-61
2024/03/14 07:22:43;;;;;;;4.00;1.50;;;9.00;99.90;;;;;;5124825;27;20409;-59
2024/03/14 07:25:13;;;;;;;4.17;1.97;;;9.00;99.90;;;;;;5122231;27;20420;-58
2024/03/14 07:27:40;;;;;;;4.40;1.77;;;9.10;99.90;;;;;;5123486;27;20409;-58
2024/03/14 07:30:13;;;;;;;3.60;1.90;;;9.10;99.90;;;;;;5122806;27;20409;-59
2024/03/14 07:32:40;;;;;;;4.85;2.00;;;9.10;99.90;;;;;;5116724;27;20432;-58
2024/03/14 07:35:08;;;;;;;4.22;1.40;;;9.20;99.90;;;;;;5121688;27;20397;-58
2024/03/14 07:37:36;;;;;;;5.63;1.40;;;9.10;99.90;;;;;;5118565;27;20411;-58
2024/03/14 07:40:04;;;;;;;4.72;1.50;;;9.20;99.90;;;;;;5117325;27;20413;-59
2024/03/14 07:42:31;;;;;;;3.50;1.30;;;9.30;99.90;;;;;;5122182;27;20416;-59
2024/03/14 07:44:58;;;;;;;3.47;1.70;;;9.30;99.90;;;;;;5121905;27;20764;-59
2024/03/14 07:47:25;;;;;;;3.35;1.48;;;9.40;99.90;;;;;;5121751;27;20416;-60
2024/03/14 07:49:53;;;;;;;2.33;1.17;;;9.50;99.90;;;;;;5122296;27;20413;-59
2024/03/14 07:52:20;;;;;;;4.43;1.53;;;9.50;99.90;;;;;;5122322;27;20428;-59
2024/03/14 07:54:47;;;;;;;3.97;1.63;;;9.50;99.90;;;;;;5121983;27;20413;-59
2024/03/14 07:57:15;;;;;;;3.53;1.40;;;9.60;99.90;;;;;;5119401;27;20423;-59
2024/03/14 07:59:42;;;;;;;2.90;1.13;;;9.60;99.90;;;;;;5121310;27;20417;-60
2024/03/14 08:02:10;;;;;;;2.80;1.48;;;9.60;99.90;;;;;;5121828;27;20421;-58
2024/03/14 08:04:38;;;;;;;2.67;1.30;;;9.60;99.90;;;;;;5121526;27;20409;-59
2024/03/14 08:07:13;;;;;;;3.80;1.20;;;9.60;99.90;;;;;;5122194;27;20420;-59
2024/03/14 08:09:41;;;;;;;3.70;1.40;;;9.70;99.90;;;;;;5122637;27;20409;-58
2024/03/14 08:12:08;;;;;;;2.90;1.20;;;9.70;99.90;;;;;;5121572;27;20408;-59
2024/03/14 08:14:35;;;;;;;4.00;1.30;;;9.80;99.90;;;;;;5120779;27;20412;-58
2024/03/14 08:17:06;;;;;;;1.95;1.00;;;9.90;99.90;;;;;;5120677;27;20425;-59
2024/03/14 08:19:34;;;;;;;2.80;1.00;;;9.90;99.90;;;;;;5123769;27;20424;-58
2024/03/14 08:22:04;;;;;;;2.30;1.00;;;9.90;99.90;;;;;;5126045;27;20417;-58
2024/03/14 08:24:42;;;;;;;3.07;1.17;;;10.00;99.90;;;;;;5126392;27;20420;-58
2024/03/14 08:27:10;;;;;;;2.00;1.00;;;10.00;99.90;;;;;;5128990;27;20413;-58
2024/03/14 08:29:37;;;;;;;1.80;1.00;;;10.10;99.90;;;;;;5126239;27;20420;-57
2024/03/14 08:32:05;;;;;;;2.55;1.00;;;10.20;99.90;;;;;;5125272;27;20405;-57
2024/03/14 08:34:32;;;;;;;4.00;1.10;;;10.20;99.90;;;;;;5126050;27;20501;-58
2024/03/14 08:36:59;;;;;;;2.03;0.90;;;10.20;99.90;;;;;;5123853;27;20416;-59
2024/03/14 08:39:27;;;;;;;1.73;0.90;;;10.30;99.90;;;;;;5124530;27;20863;-59
2024/03/14 08:41:54;;;;;;;1.98;1.00;;;10.40;99.90;;;;;;5125901;27;20507;-57
2024/03/14 08:44:23;;;;;;;2.30;0.98;;;10.40;99.90;;;;;;5124802;27;20409;-58
2024/03/14 08:46:51;;;;;;;2.65;0.90;;;10.40;99.90;;;;;;5125925;27;20409;-59
2024/03/14 08:49:18;;;;;;;2.08;1.00;;;10.50;99.90;;;;;;5125582;27;20480;-58
2024/03/14 08:51:45;;;;;;;1.77;0.80;;;10.60;99.90;;;;;;5125764;27;20481;-58
2024/03/14 08:56:53;;;;;;;1.35;0.80;;;10.70;99.90;;;;;;5128267;27;20774;-58
2024/03/14 08:59:22;;;;;;;1.48;0.73;;;10.90;99.90;;;;;;5123036;27;20430;-58
2024/03/14 09:01:50;;;;;;;1.40;0.80;;;10.90;99.90;;;;;;5124818;27;20423;-57
2024/03/14 09:04:17;;;;;;;1.02;0.70;;;11.00;99.90;;;;;;5120857;27;20422;-57
2024/03/14 09:06:45;;;;;;;1.60;0.60;;;11.20;99.90;;;;;;5116893;27;20486;-57
2024/03/14 09:09:23;;;;;;;1.00;0.70;;;11.30;99.90;;;;;;5123648;27;20427;-57
2024/03/14 09:11:50;;;;;;;1.20;0.70;;;11.40;99.90;;;;;;5128094;27;20416;-57
2024/03/14 09:14:17;;;;;;;1.20;0.70;;;11.50;99.90;;;;;;5119251;27;20739;-57
2024/03/14 09:16:45;;;;;;;1.40;0.68;;;11.50;95.20;;;;;;5103996;27;20459;-58
2024/03/14 09:19:13;;;;;;;1.10;0.70;;;11.50;99.90;;;;;;5105841;27;20885;-58
2024/03/14 09:21:40;;;;;;;1.10;0.60;;;11.60;99.90;;;;;;5124271;27;20703;-57
2024/03/14 09:24:11;;;;;;;1.30;0.70;;;11.60;99.90;;;;;;5124896;27;20412;-56
2024/03/14 09:26:38;;;;;;;1.00;0.60;;;11.70;99.90;;;;;;5124402;27;20425;-57
2024/03/14 09:29:06;;;;;;;1.20;0.70;;;11.80;96.10;;;;;;5117232;27;20537;-58
2024/03/14 09:31:33;;;;;;;1.30;0.70;;;11.80;94.00;;;;;;5120200;27;20483;-58
2024/03/14 09:34:00;;;;;;;1.17;0.60;;;12.00;94.70;;;;;;5117252;27;20489;-56
2024/03/14 09:36:27;;;;;;;1.10;0.50;;;12.10;78.30;;;;;;5117866;27;20414;-58
2024/03/14 09:38:54;;;;;;;1.00;0.60;;;12.20;74.30;;;;;;5112200;27;20414;-57
2024/03/14 09:41:21;;;;;;;1.10;0.50;;;12.40;51.20;;;;;;5119956;27;20923;-57
2024/03/14 09:43:48;;;;;;;1.20;0.50;;;12.50;46.40;;;;;;5116096;27;20399;-54
2024/03/14 09:46:17;;;;;;;1.10;0.60;;;12.60;34.90;;;;;;5119452;27;20483;-56
2024/03/14 09:48:45;;;;;;;1.20;0.60;;;12.60;43.50;;;;;;5118335;27;20418;-57
2024/03/14 09:51:12;;;;;;;0.93;0.60;;;12.70;38.40;;;;;;5120428;27;20524;-54
2024/03/14 09:53:39;;;;;;;0.90;0.60;;;12.70;29.60;;;;;;5123035;27;20436;-56
2024/03/14 09:56:07;;;;;;;0.80;0.50;;;12.80;30.20;;;;;;5122191;27;20476;-56
2024/03/14 09:58:35;;;;;;;0.90;0.50;;;12.80;29.80;;;;;;5122486;27;20416;-54
2024/03/14 10:01:03;;;;;;;1.10;0.50;;;12.90;41.60;;;;;;5123721;27;20676;-56
2024/03/14 10:03:31;;;;;;;0.90;0.40;;;13.00;21.60;;;;;;5119791;27;20414;-55
2024/03/14 10:05:58;;;;;;;0.90;0.50;;;13.00;24.90;;;;;;5113237;27;20461;-56
2024/03/14 10:08:27;;;;;;;0.85;0.40;;;13.10;21.20;;;;;;5114866;27;20418;-56
2024/03/14 10:10:54;;;;;;;0.60;0.40;;;13.20;22.90;;;;;;5115258;27;20437;-56
2024/03/14 10:13:26;;;;;;;0.70;0.40;;;13.30;10.80;;;;;;5119533;27;20483;-56
2024/03/14 10:15:54;;;;;;;1.40;0.50;;;13.40;1.00;;;;;;5118440;27;20496;-56
2024/03/14 10:18:22;;;;;;;0.80;0.40;;;13.50;1.00;;;;;;5119614;27;20422;-55
2024/03/14 10:20:50;;;;;;;0.80;0.40;;;13.60;1.00;;;;;;5122746;27;20416;-54
2024/03/14 10:23:18;;;;;;;0.70;0.40;;;13.70;1.00;;;;;;5123337;27;20469;-56
2024/03/14 10:25:50;;;;;;;1.63;0.60;;;13.80;1.00;;;;;;5123563;27;20457;-57
2024/03/14 10:28:20;;;;;;;0.70;0.40;;;14.00;1.00;;;;;;5120222;27;20426;-55
2024/03/14 10:30:52;;;;;;;0.60;0.40;;;14.00;1.00;;;;;;5117262;27;20427;-57
2024/03/14 10:33:20;;;;;;;0.60;0.30;;;14.00;1.00;;;;;;5121372;27;20519;-55
2024/03/14 10:35:47;;;;;;;0.63;0.30;;;14.10;1.00;;;;;;5121381;27;20416;-57
2024/03/14 10:38:15;;;;;;;1.15;0.38;;;14.30;1.00;;;;;;5108224;27;20435;-57
2024/03/14 10:40:42;;;;;;;0.40;0.30;;;14.40;1.00;;;;;;5119465;27;20447;-57
2024/03/14 10:43:10;;;;;;;0.40;0.30;;;14.50;1.00;;;;;;5111202;27;20443;-57
2024/03/14 10:45:37;;;;;;;0.50;0.30;;;14.70;1.00;;;;;;5120980;27;20492;-57
2024/03/14 10:48:07;;;;;;;0.65;0.30;;;14.90;1.00;;;;;;5121716;27;20412;-57
2024/03/14 10:50:34;;;;;;;0.60;0.30;;;15.00;1.00;;;;;;5115067;27;20451;-55
2024/03/14 10:53:01;;;;;;;0.68;0.40;;;15.20;1.00;;;;;;5122736;27;20414;-57
2024/03/14 10:55:32;;;;;;;2.90;0.30;;;15.30;1.00;;;;;;5113307;27;20698;-62
2024/03/14 10:58:01;;;;;;;0.70;0.30;;;15.30;1.00;;;;;;5125696;27;20452;-61
2024/03/14 11:00:28;;;;;;;0.70;0.30;;;15.50;1.00;;;;;;5102137;28;20422;-62
2024/03/14 11:02:56;;;;;;;0.63;0.30;;;15.80;1.00;;;;;;5098872;27;20848;-62
2024/03/14 11:05:23;;;;;;;0.57;0.35;;;15.80;99.90;;;;;;5118865;28;20467;-62
2024/03/14 11:07:51;;;;;;;0.70;0.40;;;15.70;1.00;;;;;;5118960;28;20804;-62
2024/03/14 11:10:20;;;;;;;0.60;0.30;;;15.60;99.90;;;;;;5118630;27;20418;-62
2024/03/14 11:12:47;;;;;;;0.50;0.30;;;15.50;99.90;;;;;;5123286;27;20727;-61
2024/03/14 11:15:16;;;;;;;0.40;0.20;;;15.50;1.00;;;;;;5122815;27;20511;-62
2024/03/14 11:17:44;;;;;;;0.50;0.30;;;15.60;99.90;;;;;;5123406;27;20428;-61
2024/03/14 11:20:11;;;;;;;0.50;0.20;;;15.60;1.00;;;;;;5120424;27;20437;-61
2024/03/14 11:22:42;;;;;;;0.50;0.30;;;15.60;36.40;;;;;;5121675;27;20480;-62
2024/03/14 11:25:12;;;;;;;0.60;0.30;;;15.50;99.90;;;;;;5120110;27;20491;-62
2024/03/14 11:27:40;;;;;;;0.57;0.30;;;15.50;1.00;;;;;;5120883;27;20520;-61
2024/03/14 11:30:12;;;;;;;0.47;0.30;;;15.40;1.00;;;;;;5120981;27;20431;-61
2024/03/14 11:32:49;;;;;;;0.45;0.20;;;15.40;1.00;;;;;;5119962;27;20516;-58
2024/03/14 11:35:43;;;;;;;0.50;0.30;;;15.50;1.00;;;;;;5119814;27;20473;-61
2024/03/14 11:38:26;;;;;;;0.60;0.30;;;15.60;99.90;;;;;;5094292;28;20501;-60
2024/03/14 11:40:53;;;;;;;1.80;0.30;;;15.60;1.00;;;;;;5114640;27;20479;-60
2024/03/14 11:43:22;;;;;;;0.60;0.30;;;15.60;99.90;;;;;;5122358;27;20420;-60
2024/03/14 11:45:55;;;;;;;0.70;0.30;;;15.70;1.00;;;;;;5122413;27;20436;-60
2024/03/14 11:48:22;;;;;;;0.50;0.30;;;15.70;1.00;;;;;;5120911;27;20822;-60
2024/03/14 11:50:52;;;;;;;0.50;0.30;;;15.80;1.00;;;;;;5121548;27;20469;-60
2024/03/14 11:53:21;;;;;;;0.50;0.30;;;16.10;1.00;;;;;;5122179;27;20751;-60
2024/03/14 11:55:48;;;;;;;0.80;0.30;;;16.50;99.90;;;;;;5126801;27;20434;-61
2024/03/14 11:58:14;;;;;;;0.60;0.30;;;16.70;1.00;;;;;;5125990;27;20755;-60
2024/03/14 12:00:41;;;;;;;0.50;0.30;;;16.90;1.00;;;;;;5126228;27;20412;-60
2024/03/14 12:03:09;;;;;;;0.70;0.30;;;17.00;1.00;;;;;;5126000;27;20874;-60
2024/03/14 12:05:41;;;;;;;0.60;0.30;;;17.10;1.00;;;;;;5126247;27;20417;-60
2024/03/14 12:08:10;;;;;;;0.50;0.30;;;17.10;1.00;;;;;;5127314;27;20850;-61
2024/03/14 12:10:38;;;;;;;1.15;0.30;;;17.10;1.00;;;;;;5125743;27;20408;-60
2024/03/14 12:13:06;;;;;;;0.50;0.30;;;16.80;1.00;;;;;;5126922;27;20774;-61
2024/03/14 12:15:36;;;;;;;0.40;0.20;;;16.90;1.00;;;;;;5126388;27;20835;-62
2024/03/14 12:18:04;;;;;;;0.50;0.30;;;17.10;1.00;;;;;;5125873;27;20428;-59
2024/03/14 12:20:32;;;;;;;0.50;0.30;;;17.20;99.90;;;;;;5126123;27;20416;-59
2024/03/14 12:23:00;;;;;;;0.60;0.30;;;17.20;1.00;;;;;;5126032;27;20426;-60
2024/03/14 12:25:27;;;;;;;0.60;0.20;;;16.90;99.90;;;;;;5125780;27;20444;-60
2024/03/14 12:27:55;;;;;;;0.60;0.30;;;16.80;1.00;;;;;;5124146;27;20425;-60
2024/03/14 12:30:22;;;;;;;0.45;0.20;;;16.80;99.90;;;;;;5123319;27;20423;-59
2024/03/14 12:32:56;;;;;;;0.50;0.20;;;17.10;99.90;;;;;;5125024;27;20469;-60
2024/03/14 12:35:23;;;;;;;0.57;0.30;;;17.30;99.90;;;;;;5125949;27;20432;-59
2024/03/14 12:37:52;;;;;;;0.50;0.20;;;17.40;99.90;;;;;;5123874;27;20501;-59
2024/03/14 12:40:21;;;;;;;0.50;0.20;;;17.40;99.90;;;;;;5121969;27;20417;-60
2024/03/14 12:42:48;;;;;;;0.57;0.28;;;17.50;99.90;;;;;;5122269;27;20507;-60
2024/03/14 12:45:15;;;;;;;0.50;0.20;;;17.70;99.90;;;;;;5124417;27;20424;-60
2024/03/14 12:47:43;;;;;;;0.50;0.20;;;17.50;99.90;;;;;;5124857;27;20477;-60
2024/03/14 12:50:21;;;;;;;0.52;0.20;;;17.50;99.90;;;;;;5125184;27;20736;-59
2024/03/14 12:53:02;;;;;;;1.42;0.63;;;17.60;99.90;;;;;;5117283;27;20794;-59
2024/03/14 12:55:29;;;;;;;0.50;0.20;;;17.90;99.90;;;;;;5124488;27;20523;-59
2024/03/14 12:57:56;;;;;;;0.90;0.52;;;18.20;99.90;;;;;;5122704;27;20413;-60
2024/03/14 13:00:26;;;;;;;0.73;0.20;;;18.30;99.90;;;;;;5122457;27;20436;-59